Terminal Aerodrome Forecast
Issued by NWS Sterling, VA

Current Version | Previous Version | Text Only | Print | Product List | Glossary Off
Versions: 1 2 3 4 5 6 7 8 9 10 11 12 13 14 15 16 17 18 19 20 21 22 23 24 25

993
FTUS41 KLWX 302340
TAFDCA
TAF
KDCA 302340Z 0100/0124 19012KT P6SM SHRA OVC050
     FM010300 22012G21KT P6SM -SHRA OVC045
     FM010600 26010G19KT P6SM -SHRA BKN045
     FM010700 27010KT P6SM BKN050
     FM010800 28010KT P6SM SCT100=

USA.gov is the U.S. government's official web portal to all federal, state and local government web resources and services.